createdAt,value
2023-02-06T00:02:17.379Z,102469.13
2023-02-06T00:04:49.012Z,102470.15
2023-02-06T00:07:20.416Z,102468.60
2023-02-06T00:09:51.890Z,102461.96
2023-02-06T00:12:23.401Z,102463.88
2023-02-06T00:14:54.845Z,102455.84
2023-02-06T00:17:26.239Z,102455.54
2023-02-06T00:19:57.659Z,102461.48
2023-02-06T00:22:29.164Z,102459.55
2023-02-06T00:25:00.804Z,102464.20
2023-02-06T00:27:32.911Z,102466.16
2023-02-06T00:30:06.097Z,102461.27
2023-02-06T00:32:38.214Z,102465.92
2023-02-06T00:35:10.224Z,102467.95
2023-02-06T00:37:41.826Z,102466.05
2023-02-06T00:40:15.091Z,102461.98
2023-02-06T00:42:46.546Z,102467.64
2023-02-06T00:45:18.222Z,102470.34
2023-02-06T00:47:49.633Z,102463.50
2023-02-06T00:50:21.537Z,102458.77
2023-02-06T00:52:53.021Z,102463.65
2023-02-06T00:55:24.408Z,102466.29
2023-02-06T00:57:55.837Z,102460.94
2023-02-06T01:00:27.254Z,102454.90
2023-02-06T01:02:58.856Z,102454.02
2023-02-06T01:05:30.584Z,102450.34
2023-02-06T01:08:04.352Z,102448.21
2023-02-06T01:10:36.264Z,102446.14
2023-02-06T01:13:07.665Z,102441.43
2023-02-06T01:15:39.425Z,102434.66
2023-02-06T01:18:12.095Z,102426.05
2023-02-06T01:20:44.462Z,102422.70
2023-02-06T01:23:16.130Z,102419.20
2023-02-06T01:25:47.675Z,102413.60
2023-02-06T01:28:19.370Z,102410.17
2023-02-06T01:30:50.844Z,102403.97
2023-02-06T01:33:22.282Z,102410.64
2023-02-06T01:35:59.498Z,102413.14
2023-02-06T01:38:31.001Z,102416.67
2023-02-06T01:41:03.489Z,102420.90
2023-02-06T01:43:37.125Z,102420.34
2023-02-06T01:46:09.604Z,102419.81
2023-02-06T01:48:43.938Z,102418.48
2023-02-06T01:51:18.864Z,102415.57
2023-02-06T01:53:55.166Z,102408.16
2023-02-06T01:56:28.572Z,102413.12
2023-02-06T01:59:03.497Z,102409.17
2023-02-06T02:01:35.845Z,102414.30
2023-02-06T02:04:10.297Z,102412.98
2023-02-06T02:06:43.498Z,102414.27
2023-02-06T02:09:15.408Z,102419.59
2023-02-06T02:11:46.872Z,102423.61
2023-02-06T02:14:20.310Z,102426.34
2023-02-06T02:17:02.761Z,102418.89
2023-02-06T02:20:13.166Z,102421.02
2023-02-06T02:23:06.357Z,102426.69
2023-02-06T02:26:00.340Z,102429.39
2023-02-06T02:29:00.739Z,102429.95
2023-02-06T02:32:08.051Z,102429.25
2023-02-06T02:34:59.321Z,102428.70
2023-02-06T02:37:41.193Z,102428.07
2023-02-06T02:40:20.702Z,102434.10
2023-02-06T02:43:01.761Z,102437.39
2023-02-06T02:45:38.414Z,102440.61
2023-02-06T02:48:15.921Z,102439.55
2023-02-06T02:50:47.355Z,102445.16
2023-02-06T02:53:19.391Z,102445.23
2023-02-06T02:55:50.876Z,102448.27
2023-02-06T02:58:28.768Z,102446.19
2023-02-06T03:01:03.819Z,102442.70
2023-02-06T03:03:36.525Z,102444.16
2023-02-06T03:06:28.497Z,102447.08
2023-02-06T03:09:10.307Z,102448.76
2023-02-06T03:11:47.062Z,102448.82
2023-02-06T03:14:24.782Z,102443.41
2023-02-06T03:17:01.216Z,102443.21
2023-02-06T03:19:37.021Z,102440.30
2023-02-06T03:22:08.729Z,102436.80
2023-02-06T03:24:41.849Z,102432.13
2023-02-06T03:27:17.483Z,102430.79
2023-02-06T03:29:51.932Z,102435.16
2023-02-06T03:32:27.320Z,102431.69
2023-02-06T03:35:03.118Z,102435.73
2023-02-06T03:37:37.197Z,102433.63
2023-02-06T03:40:11.768Z,102436.19
2023-02-06T03:42:47.396Z,102431.00
2023-02-06T03:45:25.885Z,102433.11
2023-02-06T03:48:03.507Z,102435.26
2023-02-06T03:50:38.217Z,102427.48
2023-02-06T03:53:08.349Z,102420.48
2023-02-06T03:55:41.614Z,102420.11
2023-02-06T03:58:16.151Z,102417.34
2023-02-06T04:00:49.705Z,102417.70
2023-02-06T04:03:23.130Z,102412.05
2023-02-06T04:05:54.532Z,102414.15
2023-02-06T04:08:26.084Z,102407.41
2023-02-06T04:10:57.441Z,102404.62
2023-02-06T04:13:28.870Z,102401.37
2023-02-06T04:16:00.316Z,102399.77
2023-02-06T04:18:31.851Z,102396.95
2023-02-06T04:21:08.682Z,102395.34
2023-02-06T04:23:40.060Z,102393.55
2023-02-06T04:26:11.476Z,102399.19
2023-02-06T04:28:42.911Z,102398.02
2023-02-06T04:31:14.241Z,102402.94
2023-02-06T04:33:45.961Z,102405.30
2023-02-06T04:36:22.625Z,102411.42
2023-02-06T04:38:59.528Z,102409.56
2023-02-06T04:41:38.100Z,102408.49
2023-02-06T04:44:09.728Z,102415.88
2023-02-06T04:46:41.227Z,102422.52
2023-02-06T04:49:13.061Z,102421.27
2023-02-06T04:51:44.976Z,102423.63
2023-02-06T04:54:18.154Z,102428.04
2023-02-06T04:56:49.638Z,102428.63
2023-02-06T04:59:21.292Z,102425.52
2023-02-06T05:01:53.015Z,102421.65
2023-02-06T05:04:24.458Z,102422.36
2023-02-06T05:06:56.003Z,102422.63
2023-02-06T05:09:27.431Z,102431.83
2023-02-06T05:11:58.816Z,102424.81
2023-02-06T05:14:30.464Z,102427.48
2023-02-06T05:17:01.862Z,102431.10
2023-02-06T05:19:33.488Z,102429.41
2023-02-06T05:22:04.963Z,102430.66
2023-02-06T05:24:36.471Z,102430.37
2023-02-06T05:27:07.880Z,102434.48
2023-02-06T05:29:39.431Z,102434.97
2023-02-06T05:32:10.848Z,102436.55
2023-02-06T05:34:42.396Z,102426.91
2023-02-06T05:37:15.409Z,102435.17
2023-02-06T05:39:46.926Z,102428.08
2023-02-06T05:42:18.411Z,102428.82
2023-02-06T05:44:49.820Z,102431.82
2023-02-06T05:47:21.382Z,102436.78
2023-02-06T05:49:53.187Z,102443.91
2023-02-06T05:52:24.636Z,102445.03
2023-02-06T05:54:56.144Z,102444.30
2023-02-06T05:57:27.726Z,102447.60
2023-02-06T05:59:59.178Z,102447.25
2023-02-06T06:02:30.703Z,102446.73
2023-02-06T06:05:02.267Z,102448.28
2023-02-06T06:07:33.865Z,102447.54
2023-02-06T06:10:07.075Z,102444.48
2023-02-06T06:12:38.938Z,102442.63
2023-02-06T06:15:12.153Z,102444.30
2023-02-06T06:17:43.664Z,102444.27
2023-02-06T06:20:15.793Z,102441.93
2023-02-06T06:22:47.564Z,102440.77
2023-02-06T06:25:19.231Z,102447.62
2023-02-06T06:27:50.799Z,102442.79
2023-02-06T06:30:22.610Z,102442.92
2023-02-06T06:32:54.161Z,102439.98
2023-02-06T06:35:27.497Z,102437.77
2023-02-06T06:37:59.053Z,102439.34
2023-02-06T06:40:30.647Z,102440.93
2023-02-06T06:43:02.251Z,102442.83
2023-02-06T06:45:35.078Z,102445.24
2023-02-06T06:48:07.264Z,102445.17
2023-02-06T06:50:38.759Z,102446.08
2023-02-06T06:53:10.263Z,102453.70
2023-02-06T06:55:41.732Z,102456.38
2023-02-06T06:58:13.433Z,102453.73
2023-02-06T07:00:45.266Z,102454.92
2023-02-06T07:03:16.966Z,102463.20
2023-02-06T07:05:48.713Z,102459.37
2023-02-06T07:08:20.313Z,102466.75
2023-02-06T07:10:51.899Z,102465.04
2023-02-06T07:13:23.440Z,102466.61
2023-02-06T07:15:55.062Z,102466.89
2023-02-06T07:18:28.462Z,102466.61
2023-02-06T07:21:00.131Z,102466.02
2023-02-06T07:23:31.764Z,102464.51
2023-02-06T07:26:03.850Z,102465.97
2023-02-06T07:28:36.034Z,102462.98
2023-02-06T07:31:09.144Z,102460.56
2023-02-06T07:33:43.516Z,102457.04
2023-02-06T07:36:16.673Z,102458.51
2023-02-06T07:38:48.216Z,102453.98
2023-02-06T07:41:20.130Z,102449.14
2023-02-06T07:43:51.796Z,102448.50
2023-02-06T07:46:23.374Z,102450.41
2023-02-06T07:48:55.198Z,102450.48
2023-02-06T07:51:26.779Z,102450.91
2023-02-06T07:53:58.549Z,102459.14
2023-02-06T07:56:31.846Z,102463.85
2023-02-06T07:59:03.449Z,102471.39
2023-02-06T08:01:35.237Z,102469.34
2023-02-06T08:04:07.110Z,102468.00
2023-02-06T08:06:41.627Z,102472.64
2023-02-06T08:09:17.641Z,102470.92
2023-02-06T08:11:49.266Z,102468.34
2023-02-06T08:14:20.990Z,102466.63
2023-02-06T08:16:53.947Z,102467.33
2023-02-06T08:19:25.860Z,102473.88
2023-02-06T08:21:57.385Z,102471.30
2023-02-06T08:24:29.230Z,102472.86
2023-02-06T08:27:00.921Z,102467.68
2023-02-06T08:29:32.616Z,102465.09
2023-02-06T08:32:04.199Z,102460.70
2023-02-06T08:34:35.730Z,102455.84
2023-02-06T08:37:07.434Z,102455.49
2023-02-06T08:39:39.868Z,102454.73
2023-02-06T08:42:11.514Z,102454.54
2023-02-06T08:44:43.063Z,102465.09
2023-02-06T08:47:14.823Z,102463.90
2023-02-06T08:49:46.539Z,102467.20
2023-02-06T08:52:18.154Z,102472.73
2023-02-06T08:54:51.430Z,102481.36
2023-02-06T08:57:23.034Z,102476.00
2023-02-06T08:59:54.711Z,102480.14
2023-02-06T09:02:26.275Z,102478.77
2023-02-06T09:04:58.014Z,102480.14
2023-02-06T09:07:30.013Z,102482.20
2023-02-06T09:10:01.758Z,102479.53
2023-02-06T09:12:33.351Z,102478.96
2023-02-06T09:15:05.154Z,102474.88
2023-02-06T09:17:36.804Z,102478.11
2023-02-06T09:20:09.483Z,102478.04
2023-02-06T09:22:42.137Z,102479.48
2023-02-06T09:25:13.829Z,102474.45
2023-02-06T09:27:47.050Z,102472.62
2023-02-06T09:30:19.251Z,102478.67
2023-02-06T09:32:50.821Z,102477.44
2023-02-06T09:35:22.456Z,102479.61
2023-02-06T09:37:54.215Z,102481.71
2023-02-06T09:40:29.944Z,102481.40
2023-02-06T09:43:02.912Z,102470.35
2023-02-06T09:45:38.035Z,102472.63
2023-02-06T09:48:22.163Z,102469.40
2023-02-06T09:51:06.064Z,102468.08
2023-02-06T09:53:47.491Z,102464.48
2023-02-06T09:56:31.682Z,102466.34
2023-02-06T09:59:09.561Z,102471.61
2023-02-06T10:01:48.035Z,102466.69
2023-02-06T10:04:41.936Z,102462.36
2023-02-06T10:07:29.162Z,102460.16
2023-02-06T10:10:05.966Z,102464.41
2023-02-06T10:12:43.224Z,102464.02
2023-02-06T10:15:21.154Z,102471.28
2023-02-06T10:17:57.856Z,102471.45
2023-02-06T10:20:36.571Z,102472.26
2023-02-06T10:23:27.001Z,102473.23
2023-02-06T10:26:12.653Z,102471.41
2023-02-06T10:28:45.809Z,102473.55
2023-02-06T10:31:30.393Z,102471.26
2023-02-06T10:34:18.086Z,102468.34
2023-02-06T10:37:03.030Z,102468.38
2023-02-06T10:39:56.527Z,102468.55
2023-02-06T10:42:40.700Z,102471.67
2023-02-06T10:45:20.616Z,102468.27
2023-02-06T10:47:57.799Z,102468.32
2023-02-06T10:50:33.271Z,102464.72
2023-02-06T10:53:08.644Z,102462.60
2023-02-06T10:55:48.903Z,102458.23
2023-02-06T10:58:27.289Z,102459.17
2023-02-06T11:01:01.073Z,102454.30
2023-02-06T11:03:37.524Z,102454.15
2023-02-06T11:06:11.525Z,102460.11
2023-02-06T11:08:46.119Z,102459.24
2023-02-06T11:11:24.096Z,102460.23
2023-02-06T11:14:00.507Z,102456.55
2023-02-06T11:16:35.867Z,102460.73
2023-02-06T11:19:19.395Z,102462.70
2023-02-06T11:22:13.231Z,102465.52
2023-02-06T11:25:02.622Z,102472.30
2023-02-06T11:27:36.598Z,102476.20
2023-02-06T11:30:24.222Z,102479.24
2023-02-06T11:33:04.645Z,102481.29
2023-02-06T11:35:39.901Z,102485.48
2023-02-06T11:38:18.584Z,102491.48
2023-02-06T11:41:00.918Z,102487.90
2023-02-06T11:43:48.416Z,102494.56
2023-02-06T11:46:25.662Z,102499.11
2023-02-06T11:49:08.318Z,102489.25
2023-02-06T11:51:55.074Z,102483.67
2023-02-06T11:54:29.302Z,102477.34
2023-02-06T11:57:08.312Z,102475.83
2023-02-06T11:59:51.268Z,102479.73
2023-02-06T12:02:31.856Z,102481.16
2023-02-06T12:05:09.029Z,102479.81
2023-02-06T12:07:47.921Z,102477.36
2023-02-06T12:10:21.803Z,102476.63
2023-02-06T12:12:57.408Z,102477.09
2023-02-06T12:15:45.835Z,102481.58
2023-02-06T12:18:22.432Z,102471.30
2023-02-06T12:21:00.569Z,102472.73
2023-02-06T12:23:38.343Z,102481.55
2023-02-06T12:26:13.635Z,102484.77
2023-02-06T12:28:52.310Z,102488.23
2023-02-06T12:31:32.465Z,102486.55
2023-02-06T12:34:12.791Z,102481.27
2023-02-06T12:36:53.730Z,102480.42
2023-02-06T12:39:26.746Z,102480.64
2023-02-06T12:42:14.513Z,102476.36
2023-02-06T12:44:54.004Z,102474.46
2023-02-06T12:47:38.810Z,102473.09
2023-02-06T12:50:18.711Z,102480.91
2023-02-06T12:52:55.627Z,102485.17
2023-02-06T12:55:30.715Z,102487.48
2023-02-06T12:58:03.203Z,102487.59
2023-02-06T13:00:51.344Z,102487.05
2023-02-06T13:03:29.052Z,102485.90
2023-02-06T13:06:13.652Z,102488.65
2023-02-06T13:08:51.933Z,102492.48
2023-02-06T13:11:35.601Z,102488.79
2023-02-06T13:14:18.333Z,102489.45
2023-02-06T13:16:55.252Z,102478.57
2023-02-06T13:19:51.022Z,102481.04
2023-02-06T13:22:41.812Z,102477.16
2023-02-06T13:25:50.790Z,102472.48
2023-02-06T13:29:01.482Z,102471.17
2023-02-06T13:31:36.008Z,102472.09
2023-02-06T13:34:15.567Z,102470.93
2023-02-06T13:36:57.063Z,102472.32
2023-02-06T13:39:32.615Z,102479.52
2023-02-06T13:42:19.645Z,102477.45
2023-02-06T13:44:52.278Z,102475.00
2023-02-06T13:47:53.766Z,102474.33
2023-02-06T13:50:47.915Z,102474.86
2023-02-06T13:53:45.368Z,102481.11
2023-02-06T13:56:40.037Z,102485.59
2023-02-06T13:59:18.493Z,102487.25
2023-02-06T14:01:50.423Z,102483.42
2023-02-06T14:04:27.121Z,102477.52
2023-02-06T14:07:11.875Z,102471.59
2023-02-06T14:10:05.509Z,102468.75
2023-02-06T14:12:53.372Z,102462.77
2023-02-06T14:15:34.861Z,102460.09
2023-02-06T14:18:17.927Z,102466.09
2023-02-06T14:20:59.910Z,102464.17
2023-02-06T14:23:49.108Z,102470.09
2023-02-06T14:26:32.986Z,102473.60
2023-02-06T14:29:15.126Z,102472.43
2023-02-06T14:32:02.266Z,102480.55
2023-02-06T14:34:47.884Z,102480.70
2023-02-06T14:37:45.243Z,102479.99
2023-02-06T14:40:21.886Z,102484.52
2023-02-06T14:42:56.372Z,102480.27
2023-02-06T14:45:42.170Z,102479.63
2023-02-06T14:48:23.857Z,102481.47
2023-02-06T14:50:58.815Z,102482.90
2023-02-06T14:53:33.248Z,102477.31
2023-02-06T14:56:17.233Z,102476.13
2023-02-06T14:58:51.624Z,102473.70
2023-02-06T15:01:28.662Z,102468.91
2023-02-06T15:04:15.102Z,102470.34
2023-02-06T15:06:53.110Z,102473.60
2023-02-06T15:09:31.120Z,102474.54
2023-02-06T15:12:05.497Z,102472.77
2023-02-06T15:14:38.222Z,102470.38
2023-02-06T15:17:20.252Z,102468.70
2023-02-06T15:19:51.889Z,102469.10
2023-02-06T15:22:27.341Z,102471.05
2023-02-06T15:25:12.411Z,102474.67
2023-02-06T15:27:44.128Z,102475.30
2023-02-06T15:30:23.278Z,102481.77
2023-02-06T15:32:56.450Z,102485.23
2023-02-06T15:35:32.422Z,102486.79
2023-02-06T15:38:11.628Z,102490.69
2023-02-06T15:43:50.124Z,102483.45
2023-02-06T15:46:21.708Z,102489.73
2023-02-06T15:48:57.663Z,102495.80
2023-02-06T15:51:30.622Z,102492.72
2023-02-06T15:54:19.720Z,102499.45
2023-02-06T15:56:55.423Z,102508.61
2023-02-06T15:59:28.766Z,102513.11
2023-02-06T16:02:04.088Z,102514.18
2023-02-06T16:04:38.440Z,102519.02
2023-02-06T16:07:17.810Z,102526.09
2023-02-06T16:09:56.232Z,102527.14
2023-02-06T16:12:28.366Z,102526.45
2023-02-06T16:15:02.835Z,102531.27
2023-02-06T16:17:38.281Z,102530.41
2023-02-06T16:20:24.142Z,102533.00
2023-02-06T16:22:57.590Z,102545.23
2023-02-06T16:25:34.287Z,102555.92
2023-02-06T16:28:20.459Z,102562.45
2023-02-06T16:30:59.988Z,102565.36
2023-02-06T16:33:39.146Z,102561.07
2023-02-06T16:36:14.440Z,102571.74
2023-02-06T16:38:54.229Z,102574.33
2023-02-06T16:41:37.342Z,102564.99
2023-02-06T16:44:14.884Z,102560.17
2023-02-06T16:46:46.981Z,102557.23
2023-02-06T16:49:21.003Z,102562.75
2023-02-06T16:51:54.663Z,102569.60
2023-02-06T16:54:29.224Z,102564.08
2023-02-06T16:57:07.581Z,102559.60
2023-02-06T16:59:39.120Z,102561.84
2023-02-06T17:02:15.836Z,102555.61
2023-02-06T17:04:48.195Z,102556.80
2023-02-06T17:07:22.393Z,102557.31
2023-02-06T17:09:57.687Z,102553.66
2023-02-06T17:12:29.994Z,102556.44
2023-02-06T17:15:01.746Z,102561.06
2023-02-06T17:17:34.165Z,102571.19
2023-02-06T17:20:06.866Z,102578.23
2023-02-06T17:22:38.777Z,102580.80
2023-02-06T17:25:13.426Z,102582.82
2023-02-06T17:27:45.012Z,102592.05
2023-02-06T17:30:22.342Z,102596.89
2023-02-06T17:32:54.456Z,102596.25
2023-02-06T17:35:26.522Z,102595.73
2023-02-06T17:37:59.679Z,102586.38
2023-02-06T17:40:34.682Z,102576.39
2023-02-06T17:43:07.522Z,102570.73
2023-02-06T17:45:41.443Z,102578.81
2023-02-06T17:48:13.307Z,102581.13
2023-02-06T17:50:46.099Z,102578.67
2023-02-06T17:53:23.366Z,102578.30
2023-02-06T17:55:56.706Z,102579.30
2023-02-06T17:58:29.378Z,102583.07
2023-02-06T18:01:00.999Z,102583.91
2023-02-06T18:03:33.157Z,102584.96
2023-02-06T18:06:05.500Z,102581.95
2023-02-06T18:08:38.178Z,102580.84
2023-02-06T18:11:15.564Z,102576.38
2023-02-06T18:13:49.088Z,102576.33
2023-02-06T18:16:25.025Z,102581.16
2023-02-06T18:18:59.460Z,102576.77
2023-02-06T18:21:34.320Z,102572.49
2023-02-06T18:24:08.096Z,102569.67
2023-02-06T18:26:41.998Z,102575.89
2023-02-06T18:29:15.899Z,102583.27
2023-02-06T18:31:49.834Z,102585.44
2023-02-06T18:34:23.172Z,102584.03
2023-02-06T18:36:56.136Z,102581.40
2023-02-06T18:39:29.604Z,102572.01
2023-02-06T18:42:24.727Z,102567.60
2023-02-06T18:44:58.585Z,102566.30
2023-02-06T18:47:32.429Z,102573.19
2023-02-06T18:50:08.825Z,102574.20
2023-02-06T18:52:48.237Z,102572.50
2023-02-06T18:55:22.720Z,102570.96
2023-02-06T18:57:59.200Z,102563.75
2023-02-06T19:00:34.999Z,102559.29
2023-02-06T19:03:14.674Z,102558.98
2023-02-06T19:05:49.455Z,102566.05
2023-02-06T19:08:20.390Z,102566.99
2023-02-06T19:10:54.254Z,102571.80
2023-02-06T19:13:27.963Z,102572.76
2023-02-06T19:16:10.134Z,102570.35
2023-02-06T19:18:45.037Z,102566.92
2023-02-06T19:21:20.329Z,102572.59
2023-02-06T19:24:00.337Z,102574.94
2023-02-06T19:26:34.498Z,102589.67
2023-02-06T19:29:09.163Z,102584.98
2023-02-06T19:31:43.342Z,102589.91
2023-02-06T19:34:19.201Z,102591.11
2023-02-06T19:36:57.502Z,102589.17
2023-02-06T19:39:35.129Z,102589.30
2023-02-06T19:42:10.424Z,102589.35
2023-02-06T19:44:49.216Z,102593.44
2023-02-06T19:47:25.981Z,102591.45
2023-02-06T19:50:00.268Z,102594.67
2023-02-06T19:52:35.889Z,102597.25
2023-02-06T19:55:14.510Z,102591.69
2023-02-06T19:57:47.701Z,102589.30
2023-02-06T20:00:22.733Z,102591.30
2023-02-06T20:02:56.122Z,102601.58
2023-02-06T20:05:30.683Z,102602.05
2023-02-06T20:08:07.264Z,102604.74
2023-02-06T20:10:43.730Z,102613.40
2023-02-06T20:13:18.443Z,102613.38
2023-02-06T20:15:50.096Z,102622.11
2023-02-06T20:18:23.861Z,102619.14
2023-02-06T20:20:58.867Z,102616.86
2023-02-06T20:23:36.940Z,102615.94
2023-02-06T20:26:10.171Z,102620.23
2023-02-06T20:28:43.783Z,102622.08
2023-02-06T20:31:17.857Z,102610.98
2023-02-06T20:33:51.783Z,102615.73
2023-02-06T20:36:29.978Z,102613.92
2023-02-06T20:39:07.008Z,102614.05
2023-02-06T20:41:39.918Z,102608.08
2023-02-06T20:44:15.865Z,102617.71
2023-02-06T20:46:49.781Z,102629.67
2023-02-06T20:49:24.856Z,102632.45
2023-02-06T20:51:58.628Z,102636.45
2023-02-06T20:54:32.167Z,102635.35
2023-02-06T20:57:10.398Z,102637.20
2023-02-06T20:59:43.949Z,102641.85
2023-02-06T21:02:18.075Z,102641.29
2023-02-06T21:04:52.880Z,102640.48
2023-02-06T21:07:25.842Z,102636.64
2023-02-06T21:09:58.509Z,102632.83
2023-02-06T21:12:30.950Z,102637.00
2023-02-06T21:15:03.495Z,102634.20
2023-02-06T21:17:35.202Z,102642.05
2023-02-06T21:20:09.795Z,102643.17
2023-02-06T21:22:42.033Z,102639.18
2023-02-06T21:25:13.893Z,102636.17
2023-02-06T21:27:47.116Z,102632.25
2023-02-06T21:30:19.147Z,102636.77
2023-02-06T21:32:50.663Z,102632.06
2023-02-06T21:35:22.535Z,102631.58
2023-02-06T21:37:54.207Z,102628.62
2023-02-06T21:40:25.812Z,102624.98
2023-02-06T21:42:57.401Z,102619.85
2023-02-06T21:45:28.962Z,102623.13
2023-02-06T21:48:00.597Z,102625.75
2023-02-06T21:50:32.064Z,102621.98
2023-02-06T21:53:03.582Z,102621.02
2023-02-06T21:55:35.445Z,102625.59
2023-02-06T21:58:07.078Z,102627.90
2023-02-06T22:00:38.637Z,102618.59
2023-02-06T22:03:10.926Z,102613.55
2023-02-06T22:05:42.518Z,102621.60
2023-02-06T22:08:14.037Z,102619.27
2023-02-06T22:10:45.643Z,102620.10
2023-02-06T22:13:17.169Z,102615.30
2023-02-06T22:15:52.922Z,102610.90
2023-02-06T22:18:24.363Z,102615.09
2023-02-06T22:21:06.101Z,102619.37
2023-02-06T22:23:38.160Z,102621.45
2023-02-06T22:26:10.362Z,102616.45
2023-02-06T22:28:42.077Z,102612.02
2023-02-06T22:31:15.796Z,102611.60
2023-02-06T22:33:47.462Z,102616.98
2023-02-06T22:36:20.832Z,102615.84
2023-02-06T22:38:56.950Z,102622.23
2023-02-06T22:41:28.821Z,102625.88
2023-02-06T22:44:00.639Z,102626.00
2023-02-06T22:46:35.968Z,102629.02
2023-02-06T22:49:09.171Z,102629.46
2023-02-06T22:51:41.520Z,102629.81
2023-02-06T22:54:13.565Z,102621.02
2023-02-06T22:56:45.843Z,102624.36
2023-02-06T22:59:19.579Z,102634.84
2023-02-06T23:01:53.261Z,102632.34
2023-02-06T23:04:26.179Z,102626.89
2023-02-06T23:06:57.937Z,102620.79
2023-02-06T23:09:32.908Z,102620.91
2023-02-06T23:12:05.343Z,102624.61
2023-02-06T23:14:36.906Z,102629.77
2023-02-06T23:17:08.614Z,102628.73
2023-02-06T23:19:40.174Z,102634.46
2023-02-06T23:22:11.570Z,102634.62
2023-02-06T23:24:43.085Z,102641.10
2023-02-06T23:27:14.507Z,102640.65
2023-02-06T23:29:46.128Z,102640.25
2023-02-06T23:32:17.539Z,102642.75
2023-02-06T23:34:49.202Z,102641.02
2023-02-06T23:37:20.683Z,102640.61
2023-02-06T23:39:52.286Z,102635.59
2023-02-06T23:42:24.140Z,102632.95
2023-02-06T23:44:56.262Z,102637.30
2023-02-06T23:47:27.901Z,102631.27
2023-02-06T23:49:59.365Z,102624.46
2023-02-06T23:52:31.017Z,102623.30
2023-02-06T23:55:02.730Z,102627.01
2023-02-06T23:57:36.038Z,102634.11
